sensor_id;sensor_type;location;lat;lon;timestamp;P1;durP1;ratioP1;P2;durP2;ratioP2
16820;SDS011;8527;49.740;6.604;2023-04-25T00:03:08;13.07;;;7.93;;
16820;SDS011;8527;49.740;6.604;2023-04-25T00:08:06;12.32;;;7.47;;
16820;SDS011;8527;49.740;6.604;2023-04-25T00:13:05;13.15;;;8.00;;
16820;SDS011;8527;49.740;6.604;2023-04-25T00:18:09;12.15;;;8.23;;
16820;SDS011;8527;49.740;6.604;2023-04-25T00:23:07;11.77;;;7.93;;
16820;SDS011;8527;49.740;6.604;2023-04-25T00:28:12;12.48;;;7.53;;
16820;SDS011;8527;49.740;6.604;2023-04-25T00:33:13;12.27;;;8.02;;
16820;SDS011;8527;49.740;6.604;2023-04-25T00:38:12;15.95;;;8.00;;
16820;SDS011;8527;49.740;6.604;2023-04-25T00:43:11;14.23;;;7.82;;
16820;SDS011;8527;49.740;6.604;2023-04-25T00:48:10;14.13;;;7.80;;
16820;SDS011;8527;49.740;6.604;2023-04-25T00:53:11;13.90;;;7.85;;
16820;SDS011;8527;49.740;6.604;2023-04-25T00:58:13;14.93;;;8.10;;
16820;SDS011;8527;49.740;6.604;2023-04-25T01:03:12;14.50;;;8.50;;
16820;SDS011;8527;49.740;6.604;2023-04-25T01:08:13;12.15;;;7.88;;
16820;SDS011;8527;49.740;6.604;2023-04-25T01:13:12;15.43;;;8.50;;
16820;SDS011;8527;49.740;6.604;2023-04-25T01:18:12;13.30;;;8.40;;
16820;SDS011;8527;49.740;6.604;2023-04-25T01:23:14;14.65;;;9.13;;
16820;SDS011;8527;49.740;6.604;2023-04-25T01:28:13;11.73;;;8.20;;
16820;SDS011;8527;49.740;6.604;2023-04-25T01:33:13;14.43;;;8.27;;
16820;SDS011;8527;49.740;6.604;2023-04-25T01:38:16;13.00;;;8.32;;
16820;SDS011;8527;49.740;6.604;2023-04-25T01:43:14;15.23;;;9.25;;
16820;SDS011;8527;49.740;6.604;2023-04-25T01:48:13;13.82;;;8.00;;
16820;SDS011;8527;49.740;6.604;2023-04-25T01:53:12;14.02;;;8.50;;
16820;SDS011;8527;49.740;6.604;2023-04-25T01:58:13;12.07;;;8.32;;
16820;SDS011;8527;49.740;6.604;2023-04-25T02:03:12;12.27;;;7.97;;
16820;SDS011;8527;49.740;6.604;2023-04-25T02:08:10;13.38;;;8.15;;
16820;SDS011;8527;49.740;6.604;2023-04-25T02:13:11;14.43;;;8.82;;
16820;SDS011;8527;49.740;6.604;2023-04-25T02:18:10;13.98;;;7.93;;
16820;SDS011;8527;49.740;6.604;2023-04-25T02:23:11;13.75;;;8.63;;
16820;SDS011;8527;49.740;6.604;2023-04-25T02:28:13;11.85;;;7.95;;
16820;SDS011;8527;49.740;6.604;2023-04-25T02:33:11;18.40;;;8.15;;
16820;SDS011;8527;49.740;6.604;2023-04-25T02:38:12;12.48;;;8.38;;
16820;SDS011;8527;49.740;6.604;2023-04-25T02:43:13;16.40;;;9.05;;
16820;SDS011;8527;49.740;6.604;2023-04-25T02:48:11;14.52;;;8.82;;
16820;SDS011;8527;49.740;6.604;2023-04-25T02:53:10;11.73;;;8.00;;
16820;SDS011;8527;49.740;6.604;2023-04-25T02:58:09;11.82;;;8.60;;
16820;SDS011;8527;49.740;6.604;2023-04-25T03:03:10;12.38;;;8.20;;
16820;SDS011;8527;49.740;6.604;2023-04-25T03:08:09;14.43;;;8.77;;
16820;SDS011;8527;49.740;6.604;2023-04-25T03:13:11;13.98;;;8.80;;
16820;SDS011;8527;49.740;6.604;2023-04-25T03:18:15;17.38;;;8.95;;
16820;SDS011;8527;49.740;6.604;2023-04-25T03:23:16;12.80;;;8.45;;
16820;SDS011;8527;49.740;6.604;2023-04-25T03:28:15;13.82;;;8.32;;
16820;SDS011;8527;49.740;6.604;2023-04-25T03:33:16;16.67;;;9.48;;
16820;SDS011;8527;49.740;6.604;2023-04-25T03:38:14;12.38;;;8.45;;
16820;SDS011;8527;49.740;6.604;2023-04-25T03:43:13;14.75;;;8.57;;
16820;SDS011;8527;49.740;6.604;2023-04-25T03:48:11;12.55;;;7.65;;
16820;SDS011;8527;49.740;6.604;2023-04-25T03:53:13;10.38;;;7.20;;
16820;SDS011;8527;49.740;6.604;2023-04-25T03:58:11;12.43;;;7.60;;
16820;SDS011;8527;49.740;6.604;2023-04-25T04:03:12;12.38;;;7.80;;
16820;SDS011;8527;49.740;6.604;2023-04-25T04:08:13;11.35;;;7.60;;
16820;SDS011;8527;49.740;6.604;2023-04-25T04:13:14;14.75;;;7.50;;
16820;SDS011;8527;49.740;6.604;2023-04-25T04:18:12;14.07;;;7.45;;
16820;SDS011;8527;49.740;6.604;2023-04-25T04:23:14;11.05;;;7.43;;
16820;SDS011;8527;49.740;6.604;2023-04-25T04:28:12;11.30;;;7.03;;
16820;SDS011;8527;49.740;6.604;2023-04-25T04:33:14;9.80;;;6.78;;
16820;SDS011;8527;49.740;6.604;2023-04-25T04:38:16;10.38;;;7.07;;
16820;SDS011;8527;49.740;6.604;2023-04-25T04:43:15;12.35;;;7.20;;
16820;SDS011;8527;49.740;6.604;2023-04-25T04:48:17;10.35;;;6.57;;
16820;SDS011;8527;49.740;6.604;2023-04-25T04:53:19;11.10;;;6.55;;
16820;SDS011;8527;49.740;6.604;2023-04-25T04:58:17;9.85;;;6.35;;
16820;SDS011;8527;49.740;6.604;2023-04-25T05:03:16;9.18;;;6.28;;
16820;SDS011;8527;49.740;6.604;2023-04-25T05:08:14;10.35;;;6.40;;
16820;SDS011;8527;49.740;6.604;2023-04-25T05:13:19;8.40;;;5.63;;
16820;SDS011;8527;49.740;6.604;2023-04-25T05:18:17;15.45;;;6.25;;
16820;SDS011;8527;49.740;6.604;2023-04-25T05:23:15;8.25;;;5.30;;
16820;SDS011;8527;49.740;6.604;2023-04-25T05:28:14;8.02;;;5.63;;
16820;SDS011;8527;49.740;6.604;2023-04-25T05:33:20;7.97;;;4.68;;
16820;SDS011;8527;49.740;6.604;2023-04-25T05:38:18;7.75;;;5.50;;
16820;SDS011;8527;49.740;6.604;2023-04-25T05:43:19;16.13;;;7.32;;
16820;SDS011;8527;49.740;6.604;2023-04-25T05:48:23;11.73;;;6.38;;
16820;SDS011;8527;49.740;6.604;2023-04-25T05:53:25;8.10;;;5.07;;
16820;SDS011;8527;49.740;6.604;2023-04-25T05:58:23;8.23;;;5.45;;
16820;SDS011;8527;49.740;6.604;2023-04-25T06:03:26;8.63;;;5.70;;
16820;SDS011;8527;49.740;6.604;2023-04-25T06:08:25;7.97;;;5.35;;
16820;SDS011;8527;49.740;6.604;2023-04-25T06:13:23;9.43;;;6.43;;
16820;SDS011;8527;49.740;6.604;2023-04-25T06:18:27;9.48;;;6.03;;
16820;SDS011;8527;49.740;6.604;2023-04-25T06:23:29;10.55;;;6.90;;
16820;SDS011;8527;49.740;6.604;2023-04-25T06:28:27;12.70;;;8.15;;
16820;SDS011;8527;49.740;6.604;2023-04-25T06:33:28;11.77;;;7.93;;
16820;SDS011;8527;49.740;6.604;2023-04-25T06:38:27;11.98;;;8.32;;
16820;SDS011;8527;49.740;6.604;2023-04-25T06:43:26;10.88;;;7.15;;
16820;SDS011;8527;49.740;6.604;2023-04-25T06:48:32;19.55;;;7.05;;
16820;SDS011;8527;49.740;6.604;2023-04-25T06:53:32;9.13;;;5.95;;
16820;SDS011;8527;49.740;6.604;2023-04-25T06:58:33;14.40;;;6.07;;
16820;SDS011;8527;49.740;6.604;2023-04-25T07:03:34;12.77;;;5.55;;
16820;SDS011;8527;49.740;6.604;2023-04-25T07:08:33;15.70;;;6.50;;
16820;SDS011;8527;49.740;6.604;2023-04-25T07:13:31;16.23;;;6.00;;
16820;SDS011;8527;49.740;6.604;2023-04-25T07:18:29;10.25;;;4.72;;
16820;SDS011;8527;49.740;6.604;2023-04-25T07:23:30;14.20;;;5.50;;
16820;SDS011;8527;49.740;6.604;2023-04-25T07:28:29;13.13;;;5.15;;
16820;SDS011;8527;49.740;6.604;2023-04-25T07:33:29;8.70;;;4.60;;
16820;SDS011;8527;49.740;6.604;2023-04-25T07:38:30;11.75;;;5.00;;
16820;SDS011;8527;49.740;6.604;2023-04-25T07:43:29;8.02;;;4.25;;
16820;SDS011;8527;49.740;6.604;2023-04-25T07:48:30;13.80;;;4.55;;
16820;SDS011;8527;49.740;6.604;2023-04-25T07:53:31;10.70;;;4.45;;
16820;SDS011;8527;49.740;6.604;2023-04-25T07:58:30;10.15;;;4.90;;
16820;SDS011;8527;49.740;6.604;2023-04-25T08:03:29;13.00;;;4.72;;
16820;SDS011;8527;49.740;6.604;2023-04-25T08:08:27;10.55;;;4.45;;
16820;SDS011;8527;49.740;6.604;2023-04-25T08:13:28;10.63;;;4.60;;
16820;SDS011;8527;49.740;6.604;2023-04-25T08:18:27;12.00;;;4.68;;
16820;SDS011;8527;49.740;6.604;2023-04-25T08:23:28;7.82;;;4.30;;
16820;SDS011;8527;49.740;6.604;2023-04-25T08:28:29;10.05;;;4.03;;
16820;SDS011;8527;49.740;6.604;2023-04-25T08:33:30;6.72;;;4.25;;
16820;SDS011;8527;49.740;6.604;2023-04-25T08:38:29;8.85;;;4.30;;
16820;SDS011;8527;49.740;6.604;2023-04-25T08:43:30;11.48;;;4.47;;
16820;SDS011;8527;49.740;6.604;2023-04-25T08:48:28;10.52;;;4.10;;
16820;SDS011;8527;49.740;6.604;2023-04-25T08:53:32;8.63;;;4.32;;
16820;SDS011;8527;49.740;6.604;2023-04-25T08:58:33;8.70;;;5.15;;
16820;SDS011;8527;49.740;6.604;2023-04-25T09:03:33;11.32;;;4.90;;
16820;SDS011;8527;49.740;6.604;2023-04-25T09:08:36;12.80;;;5.45;;
16820;SDS011;8527;49.740;6.604;2023-04-25T09:13:37;14.82;;;4.85;;
16820;SDS011;8527;49.740;6.604;2023-04-25T09:18:36;8.43;;;4.80;;
16820;SDS011;8527;49.740;6.604;2023-04-25T09:23:38;7.05;;;4.28;;
16820;SDS011;8527;49.740;6.604;2023-04-25T09:28:40;6.00;;;3.45;;
16820;SDS011;8527;49.740;6.604;2023-04-25T09:33:42;6.70;;;3.78;;
16820;SDS011;8527;49.740;6.604;2023-04-25T09:38:42;8.48;;;3.80;;
16820;SDS011;8527;49.740;6.604;2023-04-25T09:43:44;10.43;;;3.80;;
16820;SDS011;8527;49.740;6.604;2023-04-25T09:48:47;6.85;;;3.42;;
16820;SDS011;8527;49.740;6.604;2023-04-25T09:53:51;9.13;;;3.72;;
16820;SDS011;8527;49.740;6.604;2023-04-25T09:58:52;8.93;;;3.47;;
16820;SDS011;8527;49.740;6.604;2023-04-25T10:03:54;4.22;;;3.05;;
16820;SDS011;8527;49.740;6.604;2023-04-25T10:08:55;7.32;;;3.25;;
16820;SDS011;8527;49.740;6.604;2023-04-25T10:14:00;7.30;;;3.03;;
16820;SDS011;8527;49.740;6.604;2023-04-25T10:18:59;6.03;;;3.10;;
16820;SDS011;8527;49.740;6.604;2023-04-25T10:23:58;8.18;;;3.15;;
16820;SDS011;8527;49.740;6.604;2023-04-25T10:29:00;7.57;;;3.17;;
16820;SDS011;8527;49.740;6.604;2023-04-25T10:34:01;6.07;;;3.00;;
16820;SDS011;8527;49.740;6.604;2023-04-25T10:39:03;5.70;;;3.22;;
16820;SDS011;8527;49.740;6.604;2023-04-25T10:44:10;8.88;;;3.50;;
16820;SDS011;8527;49.740;6.604;2023-04-25T10:49:08;5.60;;;3.30;;
16820;SDS011;8527;49.740;6.604;2023-04-25T10:54:07;7.43;;;3.22;;
16820;SDS011;8527;49.740;6.604;2023-04-25T10:59:06;9.35;;;3.33;;
16820;SDS011;8527;49.740;6.604;2023-04-25T11:04:22;12.35;;;3.83;;
16820;SDS011;8527;49.740;6.604;2023-04-25T11:09:25;7.70;;;3.30;;
16820;SDS011;8527;49.740;6.604;2023-04-25T11:14:26;7.18;;;3.20;;
16820;SDS011;8527;49.740;6.604;2023-04-25T11:19:25;6.40;;;3.42;;
16820;SDS011;8527;49.740;6.604;2023-04-25T11:24:25;8.77;;;3.45;;
16820;SDS011;8527;49.740;6.604;2023-04-25T11:29:30;6.75;;;3.13;;
16820;SDS011;8527;49.740;6.604;2023-04-25T11:34:35;8.90;;;3.72;;
16820;SDS011;8527;49.740;6.604;2023-04-25T11:39:33;9.00;;;3.67;;
16820;SDS011;8527;49.740;6.604;2023-04-25T11:44:35;8.73;;;3.28;;
16820;SDS011;8527;49.740;6.604;2023-04-25T11:49:38;8.88;;;3.10;;
16820;SDS011;8527;49.740;6.604;2023-04-25T11:54:37;6.28;;;3.20;;
16820;SDS011;8527;49.740;6.604;2023-04-25T11:59:41;9.40;;;3.15;;
16820;SDS011;8527;49.740;6.604;2023-04-25T12:04:48;12.63;;;3.80;;
16820;SDS011;8527;49.740;6.604;2023-04-25T12:09:51;7.03;;;3.28;;
16820;SDS011;8527;49.740;6.604;2023-04-25T12:14:52;6.15;;;2.90;;
16820;SDS011;8527;49.740;6.604;2023-04-25T12:19:51;8.32;;;3.50;;
16820;SDS011;8527;49.740;6.604;2023-04-25T12:24:49;9.02;;;3.00;;
16820;SDS011;8527;49.740;6.604;2023-04-25T12:29:54;7.28;;;3.00;;
16820;SDS011;8527;49.740;6.604;2023-04-25T12:34:54;8.35;;;2.90;;
16820;SDS011;8527;49.740;6.604;2023-04-25T12:39:52;5.38;;;2.70;;
16820;SDS011;8527;49.740;6.604;2023-04-25T12:44:54;9.32;;;3.30;;
16820;SDS011;8527;49.740;6.604;2023-04-25T12:49:54;7.38;;;2.85;;
16820;SDS011;8527;49.740;6.604;2023-04-25T12:54:52;7.80;;;2.88;;
16820;SDS011;8527;49.740;6.604;2023-04-25T12:59:59;7.25;;;2.58;;
16820;SDS011;8527;49.740;6.604;2023-04-25T13:05:02;10.30;;;3.20;;
16820;SDS011;8527;49.740;6.604;2023-04-25T13:10:04;8.60;;;3.20;;
16820;SDS011;8527;49.740;6.604;2023-04-25T13:15:08;5.18;;;2.60;;
16820;SDS011;8527;49.740;6.604;2023-04-25T13:20:10;9.43;;;2.85;;
16820;SDS011;8527;49.740;6.604;2023-04-25T13:25:10;5.40;;;2.70;;
16820;SDS011;8527;49.740;6.604;2023-04-25T13:30:12;9.52;;;2.65;;
16820;SDS011;8527;49.740;6.604;2023-04-25T13:35:12;6.50;;;2.63;;
16820;SDS011;8527;49.740;6.604;2023-04-25T13:40:11;8.27;;;2.70;;
16820;SDS011;8527;49.740;6.604;2023-04-25T13:45:12;8.98;;;2.72;;
16820;SDS011;8527;49.740;6.604;2023-04-25T13:50:13;5.80;;;2.35;;
16820;SDS011;8527;49.740;6.604;2023-04-25T13:55:12;9.05;;;2.85;;
16820;SDS011;8527;49.740;6.604;2023-04-25T14:00:14;6.20;;;2.70;;
16820;SDS011;8527;49.740;6.604;2023-04-25T14:05:16;6.43;;;2.80;;
16820;SDS011;8527;49.740;6.604;2023-04-25T14:10:18;11.25;;;3.22;;
16820;SDS011;8527;49.740;6.604;2023-04-25T14:15:18;3.83;;;2.30;;
16820;SDS011;8527;49.740;6.604;2023-04-25T14:20:17;6.10;;;2.40;;
16820;SDS011;8527;49.740;6.604;2023-04-25T14:25:17;8.50;;;2.45;;
16820;SDS011;8527;49.740;6.604;2023-04-25T14:30:23;5.40;;;2.30;;
16820;SDS011;8527;49.740;6.604;2023-04-25T14:35:25;5.28;;;2.50;;
16820;SDS011;8527;49.740;6.604;2023-04-25T14:40:23;3.33;;;2.20;;
16820;SDS011;8527;49.740;6.604;2023-04-25T14:45:27;4.85;;;2.40;;
16820;SDS011;8527;49.740;6.604;2023-04-25T14:50:26;8.55;;;2.58;;
16820;SDS011;8527;49.740;6.604;2023-04-25T14:55:26;7.13;;;2.17;;
16820;SDS011;8527;49.740;6.604;2023-04-25T15:00:28;6.47;;;2.15;;
16820;SDS011;8527;49.740;6.604;2023-04-25T15:05:27;6.35;;;2.60;;
16820;SDS011;8527;49.740;6.604;2023-04-25T15:10:25;5.38;;;2.35;;
16820;SDS011;8527;49.740;6.604;2023-04-25T15:15:29;7.50;;;2.80;;
16820;SDS011;8527;49.740;6.604;2023-04-25T15:20:38;7.15;;;2.53;;
16820;SDS011;8527;49.740;6.604;2023-04-25T15:25:38;6.68;;;2.83;;
16820;SDS011;8527;49.740;6.604;2023-04-25T15:30:42;7.45;;;2.53;;
16820;SDS011;8527;49.740;6.604;2023-04-25T15:35:41;5.70;;;2.38;;
16820;SDS011;8527;49.740;6.604;2023-04-25T15:40:39;6.93;;;2.50;;
16820;SDS011;8527;49.740;6.604;2023-04-25T15:45:46;7.03;;;2.38;;
16820;SDS011;8527;49.740;6.604;2023-04-25T15:50:47;5.93;;;2.63;;
16820;SDS011;8527;49.740;6.604;2023-04-25T15:55:48;5.97;;;2.63;;
16820;SDS011;8527;49.740;6.604;2023-04-25T16:00:52;6.03;;;2.90;;
16820;SDS011;8527;49.740;6.604;2023-04-25T16:05:54;6.95;;;2.40;;
16820;SDS011;8527;49.740;6.604;2023-04-25T16:10:55;7.93;;;2.65;;
16820;SDS011;8527;49.740;6.604;2023-04-25T16:15:56;6.40;;;2.65;;
16820;SDS011;8527;49.740;6.604;2023-04-25T16:20:54;8.07;;;2.90;;
16820;SDS011;8527;49.740;6.604;2023-04-25T16:25:55;8.00;;;2.67;;
16820;SDS011;8527;49.740;6.604;2023-04-25T16:31:11;5.75;;;2.70;;
16820;SDS011;8527;49.740;6.604;2023-04-25T16:36:10;9.15;;;3.20;;
16820;SDS011;8527;49.740;6.604;2023-04-25T16:41:11;9.80;;;3.00;;
16820;SDS011;8527;49.740;6.604;2023-04-25T16:46:12;6.22;;;2.78;;
16820;SDS011;8527;49.740;6.604;2023-04-25T16:51:13;6.45;;;2.85;;
16820;SDS011;8527;49.740;6.604;2023-04-25T16:56:13;8.60;;;2.85;;
16820;SDS011;8527;49.740;6.604;2023-04-25T17:01:18;8.38;;;2.72;;
16820;SDS011;8527;49.740;6.604;2023-04-25T17:06:19;10.10;;;2.60;;
16820;SDS011;8527;49.740;6.604;2023-04-25T17:11:20;7.68;;;2.80;;
16820;SDS011;8527;49.740;6.604;2023-04-25T17:16:22;7.15;;;2.83;;
16820;SDS011;8527;49.740;6.604;2023-04-25T17:21:21;9.05;;;2.50;;
16820;SDS011;8527;49.740;6.604;2023-04-25T17:26:20;9.18;;;2.90;;
16820;SDS011;8527;49.740;6.604;2023-04-25T17:31:22;9.50;;;2.83;;
16820;SDS011;8527;49.740;6.604;2023-04-25T17:36:20;12.80;;;3.00;;
16820;SDS011;8527;49.740;6.604;2023-04-25T17:41:27;6.63;;;2.67;;
16820;SDS011;8527;49.740;6.604;2023-04-25T17:46:29;10.90;;;3.35;;
16820;SDS011;8527;49.740;6.604;2023-04-25T17:51:33;5.00;;;2.55;;
16820;SDS011;8527;49.740;6.604;2023-04-25T17:56:32;5.97;;;2.58;;
16820;SDS011;8527;49.740;6.604;2023-04-25T18:01:41;6.93;;;2.70;;
16820;SDS011;8527;49.740;6.604;2023-04-25T18:06:43;7.70;;;2.67;;
16820;SDS011;8527;49.740;6.604;2023-04-25T18:12:00;12.27;;;2.97;;
16820;SDS011;8527;49.740;6.604;2023-04-25T18:17:01;8.35;;;2.60;;
16820;SDS011;8527;49.740;6.604;2023-04-25T18:22:01;7.53;;;2.50;;
16820;SDS011;8527;49.740;6.604;2023-04-25T18:27:00;5.90;;;3.13;;
16820;SDS011;8527;49.740;6.604;2023-04-25T18:32:02;7.68;;;3.00;;
16820;SDS011;8527;49.740;6.604;2023-04-25T18:37:05;8.80;;;3.10;;
16820;SDS011;8527;49.740;6.604;2023-04-25T18:42:03;8.68;;;3.60;;
16820;SDS011;8527;49.740;6.604;2023-04-25T18:47:05;10.65;;;3.40;;
16820;SDS011;8527;49.740;6.604;2023-04-25T18:52:04;7.18;;;2.70;;
16820;SDS011;8527;49.740;6.604;2023-04-25T18:57:04;15.65;;;4.00;;
16820;SDS011;8527;49.740;6.604;2023-04-25T19:02:06;11.07;;;3.88;;
16820;SDS011;8527;49.740;6.604;2023-04-25T19:07:05;12.52;;;3.65;;
16820;SDS011;8527;49.740;6.604;2023-04-25T19:12:04;8.80;;;2.80;;
16820;SDS011;8527;49.740;6.604;2023-04-25T19:17:03;8.70;;;3.13;;
16820;SDS011;8527;49.740;6.604;2023-04-25T19:22:05;7.63;;;3.15;;
16820;SDS011;8527;49.740;6.604;2023-04-25T19:27:04;11.55;;;3.30;;
16820;SDS011;8527;49.740;6.604;2023-04-25T19:32:08;12.55;;;5.80;;
16820;SDS011;8527;49.740;6.604;2023-04-25T19:37:07;7.82;;;3.25;;
16820;SDS011;8527;49.740;6.604;2023-04-25T19:42:05;9.43;;;3.03;;
16820;SDS011;8527;49.740;6.604;2023-04-25T19:47:04;8.98;;;3.22;;
16820;SDS011;8527;49.740;6.604;2023-04-25T19:52:05;7.00;;;3.17;;
16820;SDS011;8527;49.740;6.604;2023-04-25T19:57:08;6.75;;;3.08;;
16820;SDS011;8527;49.740;6.604;2023-04-25T20:02:10;7.35;;;3.35;;
16820;SDS011;8527;49.740;6.604;2023-04-25T20:07:11;9.80;;;3.53;;
16820;SDS011;8527;49.740;6.604;2023-04-25T20:12:09;11.98;;;3.50;;
16820;SDS011;8527;49.740;6.604;2023-04-25T20:17:12;7.13;;;2.97;;
16820;SDS011;8527;49.740;6.604;2023-04-25T20:22:13;6.07;;;2.70;;
16820;SDS011;8527;49.740;6.604;2023-04-25T20:27:17;7.70;;;3.35;;
16820;SDS011;8527;49.740;6.604;2023-04-25T20:32:16;4.57;;;2.70;;
16820;SDS011;8527;49.740;6.604;2023-04-25T20:37:17;7.50;;;2.67;;
16820;SDS011;8527;49.740;6.604;2023-04-25T20:42:19;9.00;;;3.20;;
16820;SDS011;8527;49.740;6.604;2023-04-25T20:47:19;7.15;;;2.83;;
16820;SDS011;8527;49.740;6.604;2023-04-25T20:52:21;7.50;;;2.97;;
16820;SDS011;8527;49.740;6.604;2023-04-25T20:57:19;6.28;;;2.85;;
16820;SDS011;8527;49.740;6.604;2023-04-25T21:02:20;5.88;;;2.60;;
16820;SDS011;8527;49.740;6.604;2023-04-25T21:07:21;9.80;;;3.67;;
16820;SDS011;8527;49.740;6.604;2023-04-25T21:12:20;7.68;;;3.63;;
16820;SDS011;8527;49.740;6.604;2023-04-25T21:17:19;9.93;;;4.90;;
16820;SDS011;8527;49.740;6.604;2023-04-25T21:22:17;7.68;;;3.60;;
16820;SDS011;8527;49.740;6.604;2023-04-25T21:27:21;4.32;;;2.95;;
16820;SDS011;8527;49.740;6.604;2023-04-25T21:32:21;8.82;;;3.90;;
16820;SDS011;8527;49.740;6.604;2023-04-25T21:37:20;9.90;;;3.60;;
16820;SDS011;8527;49.740;6.604;2023-04-25T21:42:21;7.68;;;3.53;;
16820;SDS011;8527;49.740;6.604;2023-04-25T21:47:20;7.15;;;3.42;;
16820;SDS011;8527;49.740;6.604;2023-04-25T21:52:27;5.10;;;3.00;;
16820;SDS011;8527;49.740;6.604;2023-04-25T21:57:29;7.32;;;3.50;;
16820;SDS011;8527;49.740;6.604;2023-04-25T22:02:33;11.93;;;3.50;;
16820;SDS011;8527;49.740;6.604;2023-04-25T22:07:35;4.25;;;2.80;;
16820;SDS011;8527;49.740;6.604;2023-04-25T22:12:36;8.68;;;3.50;;
16820;SDS011;8527;49.740;6.604;2023-04-25T22:17:35;11.32;;;4.40;;
16820;SDS011;8527;49.740;6.604;2023-04-25T22:22:34;7.95;;;3.50;;
16820;SDS011;8527;49.740;6.604;2023-04-25T22:27:39;8.93;;;3.58;;
16820;SDS011;8527;49.740;6.604;2023-04-25T22:32:38;7.53;;;3.65;;
16820;SDS011;8527;49.740;6.604;2023-04-25T22:37:36;9.15;;;3.50;;
16820;SDS011;8527;49.740;6.604;2023-04-25T22:42:43;7.40;;;3.72;;
16820;SDS011;8527;49.740;6.604;2023-04-25T22:47:44;12.88;;;4.55;;
16820;SDS011;8527;49.740;6.604;2023-04-25T22:52:46;10.63;;;4.35;;
16820;SDS011;8527;49.740;6.604;2023-04-25T22:57:47;9.82;;;4.13;;
16820;SDS011;8527;49.740;6.604;2023-04-25T23:02:49;8.75;;;3.58;;
16820;SDS011;8527;49.740;6.604;2023-04-25T23:07:52;8.20;;;4.15;;
16820;SDS011;8527;49.740;6.604;2023-04-25T23:12:56;7.32;;;3.80;;
16820;SDS011;8527;49.740;6.604;2023-04-25T23:18:00;9.43;;;4.07;;
16820;SDS011;8527;49.740;6.604;2023-04-25T23:22:59;6.60;;;3.10;;
16820;SDS011;8527;49.740;6.604;2023-04-25T23:28:00;8.82;;;3.05;;
16820;SDS011;8527;49.740;6.604;2023-04-25T23:33:02;9.93;;;3.47;;
16820;SDS011;8527;49.740;6.604;2023-04-25T23:38:01;7.85;;;2.72;;
16820;SDS011;8527;49.740;6.604;2023-04-25T23:43:05;4.18;;;2.72;;
16820;SDS011;8527;49.740;6.604;2023-04-25T23:48:04;8.68;;;3.00;;
16820;SDS011;8527;49.740;6.604;2023-04-25T23:53:08;7.82;;;2.90;;
16820;SDS011;8527;49.740;6.604;2023-04-25T23:58:30;4.45;;;2.35;;
